sensor_id;sensor_type;location;lat;lon;timestamp;P1;durP1;ratioP1;P2;durP2;ratioP2
63110;SDS011;49201;53.426;10.300;2022-12-10T00:01:46;37.17;;;16.30;;
63110;SDS011;49201;53.426;10.300;2022-12-10T00:04:13;43.10;;;16.93;;
63110;SDS011;49201;53.426;10.300;2022-12-10T00:06:42;36.97;;;15.50;;
63110;SDS011;49201;53.426;10.300;2022-12-10T00:09:13;36.37;;;15.03;;
63110;SDS011;49201;53.426;10.300;2022-12-10T00:11:43;34.80;;;14.57;;
63110;SDS011;49201;53.426;10.300;2022-12-10T00:14:09;35.33;;;15.13;;
63110;SDS011;49201;53.426;10.300;2022-12-10T00:16:37;37.13;;;15.13;;
63110;SDS011;49201;53.426;10.300;2022-12-10T00:19:03;36.20;;;16.13;;
63110;SDS011;49201;53.426;10.300;2022-12-10T00:21:33;41.50;;;15.93;;
63110;SDS011;49201;53.426;10.300;2022-12-10T00:24:00;31.23;;;14.07;;
63110;SDS011;49201;53.426;10.300;2022-12-10T00:26:31;39.00;;;14.40;;
63110;SDS011;49201;53.426;10.300;2022-12-10T00:29:04;30.37;;;13.93;;
63110;SDS011;49201;53.426;10.300;2022-12-10T00:31:40;35.67;;;15.53;;
63110;SDS011;49201;53.426;10.300;2022-12-10T00:34:07;37.10;;;16.07;;
63110;SDS011;49201;53.426;10.300;2022-12-10T00:36:38;37.40;;;14.83;;
63110;SDS011;49201;53.426;10.300;2022-12-10T00:39:14;34.70;;;14.37;;
63110;SDS011;49201;53.426;10.300;2022-12-10T00:41:43;31.37;;;14.43;;
63110;SDS011;49201;53.426;10.300;2022-12-10T00:44:11;35.53;;;14.40;;
63110;SDS011;49201;53.426;10.300;2022-12-10T00:46:37;36.53;;;14.37;;
63110;SDS011;49201;53.426;10.300;2022-12-10T00:49:03;29.17;;;13.87;;
63110;SDS011;49201;53.426;10.300;2022-12-10T00:51:29;33.00;;;14.27;;
63110;SDS011;49201;53.426;10.300;2022-12-10T00:54:05;30.50;;;12.83;;
63110;SDS011;49201;53.426;10.300;2022-12-10T00:56:31;33.90;;;13.33;;
63110;SDS011;49201;53.426;10.300;2022-12-10T00:58:58;34.10;;;13.07;;
63110;SDS011;49201;53.426;10.300;2022-12-10T01:01:31;30.40;;;13.10;;
63110;SDS011;49201;53.426;10.300;2022-12-10T01:04:01;27.83;;;13.10;;
63110;SDS011;49201;53.426;10.300;2022-12-10T01:06:35;31.73;;;13.47;;
63110;SDS011;49201;53.426;10.300;2022-12-10T01:09:16;31.43;;;13.43;;
63110;SDS011;49201;53.426;10.300;2022-12-10T01:11:45;31.40;;;13.27;;
63110;SDS011;49201;53.426;10.300;2022-12-10T01:14:13;29.13;;;13.37;;
63110;SDS011;49201;53.426;10.300;2022-12-10T01:16:47;30.63;;;13.20;;
63110;SDS011;49201;53.426;10.300;2022-12-10T01:19:18;28.60;;;13.53;;
63110;SDS011;49201;53.426;10.300;2022-12-10T01:21:51;31.93;;;14.37;;
63110;SDS011;49201;53.426;10.300;2022-12-10T01:24:22;28.83;;;13.03;;
63110;SDS011;49201;53.426;10.300;2022-12-10T01:26:49;28.67;;;13.13;;
63110;SDS011;49201;53.426;10.300;2022-12-10T01:29:15;27.47;;;13.57;;
63110;SDS011;49201;53.426;10.300;2022-12-10T01:31:41;30.00;;;13.27;;
63110;SDS011;49201;53.426;10.300;2022-12-10T01:34:09;26.13;;;12.97;;
63110;SDS011;49201;53.426;10.300;2022-12-10T01:36:38;28.37;;;12.97;;
63110;SDS011;49201;53.426;10.300;2022-12-10T01:39:11;29.47;;;12.33;;
63110;SDS011;49201;53.426;10.300;2022-12-10T01:41:40;28.13;;;13.17;;
63110;SDS011;49201;53.426;10.300;2022-12-10T01:46:43;27.00;;;12.30;;
63110;SDS011;49201;53.426;10.300;2022-12-10T01:49:18;27.70;;;13.37;;
63110;SDS011;49201;53.426;10.300;2022-12-10T01:51:54;24.57;;;12.77;;
63110;SDS011;49201;53.426;10.300;2022-12-10T01:54:35;29.40;;;14.60;;
63110;SDS011;49201;53.426;10.300;2022-12-10T01:57:19;29.30;;;13.07;;
63110;SDS011;49201;53.426;10.300;2022-12-10T01:59:54;27.93;;;14.33;;
63110;SDS011;49201;53.426;10.300;2022-12-10T02:02:34;31.53;;;14.53;;
63110;SDS011;49201;53.426;10.300;2022-12-10T02:05:28;32.73;;;14.77;;
63110;SDS011;49201;53.426;10.300;2022-12-10T02:11:32;30.10;;;14.77;;
63110;SDS011;49201;53.426;10.300;2022-12-10T02:14:08;28.47;;;13.40;;
63110;SDS011;49201;53.426;10.300;2022-12-10T02:16:46;30.00;;;14.33;;
63110;SDS011;49201;53.426;10.300;2022-12-10T02:22:19;26.17;;;12.47;;
63110;SDS011;49201;53.426;10.300;2022-12-10T02:24:54;27.77;;;13.47;;
63110;SDS011;49201;53.426;10.300;2022-12-10T02:27:35;26.37;;;13.50;;
63110;SDS011;49201;53.426;10.300;2022-12-10T02:30:21;27.80;;;13.13;;
63110;SDS011;49201;53.426;10.300;2022-12-10T02:32:51;28.40;;;13.03;;
63110;SDS011;49201;53.426;10.300;2022-12-10T02:35:20;26.57;;;13.77;;
63110;SDS011;49201;53.426;10.300;2022-12-10T02:37:58;14.83;;;8.03;;
63110;SDS011;49201;53.426;10.300;2022-12-10T02:40:39;11.23;;;6.80;;
63110;SDS011;49201;53.426;10.300;2022-12-10T02:43:14;14.03;;;7.00;;
63110;SDS011;49201;53.426;10.300;2022-12-10T02:45:42;10.53;;;6.73;;
63110;SDS011;49201;53.426;10.300;2022-12-10T02:48:12;19.70;;;9.90;;
63110;SDS011;49201;53.426;10.300;2022-12-10T02:50:41;22.17;;;11.53;;
63110;SDS011;49201;53.426;10.300;2022-12-10T02:53:09;23.87;;;13.27;;
63110;SDS011;49201;53.426;10.300;2022-12-10T02:56:23;23.33;;;12.23;;
63110;SDS011;49201;53.426;10.300;2022-12-10T02:58:49;27.47;;;13.17;;
63110;SDS011;49201;53.426;10.300;2022-12-10T03:01:27;27.80;;;13.90;;
63110;SDS011;49201;53.426;10.300;2022-12-10T03:04:13;16.53;;;9.70;;
63110;SDS011;49201;53.426;10.300;2022-12-10T03:06:50;14.10;;;8.77;;
63110;SDS011;49201;53.426;10.300;2022-12-10T03:09:34;19.53;;;10.27;;
63110;SDS011;49201;53.426;10.300;2022-12-10T03:12:13;14.13;;;9.43;;
63110;SDS011;49201;53.426;10.300;2022-12-10T03:14:47;14.80;;;8.47;;
63110;SDS011;49201;53.426;10.300;2022-12-10T03:17:13;15.17;;;9.50;;
63110;SDS011;49201;53.426;10.300;2022-12-10T03:19:42;15.37;;;9.80;;
63110;SDS011;49201;53.426;10.300;2022-12-10T03:22:11;19.07;;;10.20;;
63110;SDS011;49201;53.426;10.300;2022-12-10T03:24:43;17.90;;;9.43;;
63110;SDS011;49201;53.426;10.300;2022-12-10T03:27:12;18.77;;;10.97;;
63110;SDS011;49201;53.426;10.300;2022-12-10T03:29:49;15.00;;;8.83;;
63110;SDS011;49201;53.426;10.300;2022-12-10T03:32:17;19.60;;;10.20;;
63110;SDS011;49201;53.426;10.300;2022-12-10T03:34:48;21.73;;;11.30;;
63110;SDS011;49201;53.426;10.300;2022-12-10T03:37:22;16.50;;;10.43;;
63110;SDS011;49201;53.426;10.300;2022-12-10T03:39:49;18.97;;;10.80;;
63110;SDS011;49201;53.426;10.300;2022-12-10T03:42:16;20.63;;;10.80;;
63110;SDS011;49201;53.426;10.300;2022-12-10T03:44:45;22.10;;;11.93;;
63110;SDS011;49201;53.426;10.300;2022-12-10T03:47:14;20.10;;;10.87;;
63110;SDS011;49201;53.426;10.300;2022-12-10T03:49:43;18.77;;;10.93;;
63110;SDS011;49201;53.426;10.300;2022-12-10T03:52:09;17.40;;;10.50;;
63110;SDS011;49201;53.426;10.300;2022-12-10T03:54:40;17.70;;;10.90;;
63110;SDS011;49201;53.426;10.300;2022-12-10T03:57:09;22.17;;;12.60;;
63110;SDS011;49201;53.426;10.300;2022-12-10T03:59:35;20.37;;;12.13;;
63110;SDS011;49201;53.426;10.300;2022-12-10T04:02:07;20.07;;;11.60;;
63110;SDS011;49201;53.426;10.300;2022-12-10T04:04:33;20.50;;;12.20;;
63110;SDS011;49201;53.426;10.300;2022-12-10T04:07:03;21.57;;;11.83;;
63110;SDS011;49201;53.426;10.300;2022-12-10T04:09:31;20.07;;;11.83;;
63110;SDS011;49201;53.426;10.300;2022-12-10T04:11:57;19.53;;;9.80;;
63110;SDS011;49201;53.426;10.300;2022-12-10T04:14:26;20.80;;;12.20;;
63110;SDS011;49201;53.426;10.300;2022-12-10T04:17:11;22.37;;;12.87;;
63110;SDS011;49201;53.426;10.300;2022-12-10T04:19:42;22.07;;;11.43;;
63110;SDS011;49201;53.426;10.300;2022-12-10T04:22:11;16.37;;;10.03;;
63110;SDS011;49201;53.426;10.300;2022-12-10T04:24:58;18.43;;;10.33;;
63110;SDS011;49201;53.426;10.300;2022-12-10T04:27:42;18.90;;;10.30;;
63110;SDS011;49201;53.426;10.300;2022-12-10T04:30:09;16.03;;;9.83;;
63110;SDS011;49201;53.426;10.300;2022-12-10T04:32:36;17.77;;;10.60;;
63110;SDS011;49201;53.426;10.300;2022-12-10T04:35:02;16.97;;;9.73;;
63110;SDS011;49201;53.426;10.300;2022-12-10T04:37:30;16.70;;;9.90;;
63110;SDS011;49201;53.426;10.300;2022-12-10T04:39:59;17.80;;;10.07;;
63110;SDS011;49201;53.426;10.300;2022-12-10T04:42:27;16.50;;;10.60;;
63110;SDS011;49201;53.426;10.300;2022-12-10T04:44:54;15.37;;;9.17;;
63110;SDS011;49201;53.426;10.300;2022-12-10T04:47:20;17.73;;;10.70;;
63110;SDS011;49201;53.426;10.300;2022-12-10T04:49:51;18.70;;;10.90;;
63110;SDS011;49201;53.426;10.300;2022-12-10T04:52:17;16.43;;;9.93;;
63110;SDS011;49201;53.426;10.300;2022-12-10T04:54:45;16.03;;;10.37;;
63110;SDS011;49201;53.426;10.300;2022-12-10T04:57:11;18.53;;;10.53;;
63110;SDS011;49201;53.426;10.300;2022-12-10T04:59:37;40.93;;;18.47;;
63110;SDS011;49201;53.426;10.300;2022-12-10T05:02:06;20.10;;;11.17;;
63110;SDS011;49201;53.426;10.300;2022-12-10T05:04:32;20.23;;;11.00;;
63110;SDS011;49201;53.426;10.300;2022-12-10T05:07:02;19.53;;;10.57;;
63110;SDS011;49201;53.426;10.300;2022-12-10T05:09:28;17.13;;;9.83;;
63110;SDS011;49201;53.426;10.300;2022-12-10T05:11:53;35.90;;;16.40;;
63110;SDS011;49201;53.426;10.300;2022-12-10T05:14:22;16.50;;;10.13;;
63110;SDS011;49201;53.426;10.300;2022-12-10T05:16:51;32.87;;;15.20;;
63110;SDS011;49201;53.426;10.300;2022-12-10T05:19:20;93.93;;;35.87;;
63110;SDS011;49201;53.426;10.300;2022-12-10T05:21:47;53.67;;;22.10;;
63110;SDS011;49201;53.426;10.300;2022-12-10T05:24:32;40.97;;;19.03;;
63110;SDS011;49201;53.426;10.300;2022-12-10T05:26:58;17.33;;;9.27;;
63110;SDS011;49201;53.426;10.300;2022-12-10T05:29:23;14.37;;;8.80;;
63110;SDS011;49201;53.426;10.300;2022-12-10T05:31:49;17.90;;;9.73;;
63110;SDS011;49201;53.426;10.300;2022-12-10T05:34:15;13.77;;;9.23;;
63110;SDS011;49201;53.426;10.300;2022-12-10T05:36:41;15.53;;;9.07;;
63110;SDS011;49201;53.426;10.300;2022-12-10T05:39:07;17.23;;;10.30;;
63110;SDS011;49201;53.426;10.300;2022-12-10T05:41:37;19.67;;;11.20;;
63110;SDS011;49201;53.426;10.300;2022-12-10T05:44:06;19.33;;;10.73;;
63110;SDS011;49201;53.426;10.300;2022-12-10T05:46:38;19.90;;;11.10;;
63110;SDS011;49201;53.426;10.300;2022-12-10T05:49:04;19.47;;;11.63;;
63110;SDS011;49201;53.426;10.300;2022-12-10T05:51:32;19.03;;;11.00;;
63110;SDS011;49201;53.426;10.300;2022-12-10T05:54:03;45.47;;;20.93;;
63110;SDS011;49201;53.426;10.300;2022-12-10T05:56:30;258.93;;;86.83;;
63110;SDS011;49201;53.426;10.300;2022-12-10T05:58:58;256.57;;;87.27;;
63110;SDS011;49201;53.426;10.300;2022-12-10T06:01:26;35.13;;;17.33;;
63110;SDS011;49201;53.426;10.300;2022-12-10T06:03:54;23.13;;;11.87;;
63110;SDS011;49201;53.426;10.300;2022-12-10T06:06:54;16.80;;;10.33;;
63110;SDS011;49201;53.426;10.300;2022-12-10T06:09:17;45.40;;;19.33;;
63110;SDS011;49201;53.426;10.300;2022-12-10T06:11:48;201.63;;;68.83;;
63110;SDS011;49201;53.426;10.300;2022-12-10T06:14:25;296.40;;;97.20;;
63110;SDS011;49201;53.426;10.300;2022-12-10T06:16:54;320.30;;;106.33;;
63110;SDS011;49201;53.426;10.300;2022-12-10T06:19:19;123.83;;;52.60;;
63110;SDS011;49201;53.426;10.300;2022-12-10T06:21:51;124.13;;;65.97;;
63110;SDS011;49201;53.426;10.300;2022-12-10T06:24:19;159.93;;;117.40;;
63110;SDS011;49201;53.426;10.300;2022-12-10T06:26:56;63.57;;;40.77;;
63110;SDS011;49201;53.426;10.300;2022-12-10T06:29:25;71.73;;;44.37;;
63110;SDS011;49201;53.426;10.300;2022-12-10T06:31:53;27.57;;;16.83;;
63110;SDS011;49201;53.426;10.300;2022-12-10T06:34:21;17.67;;;10.90;;
63110;SDS011;49201;53.426;10.300;2022-12-10T06:36:47;17.77;;;10.27;;
63110;SDS011;49201;53.426;10.300;2022-12-10T06:39:18;12.63;;;7.40;;
63110;SDS011;49201;53.426;10.300;2022-12-10T06:41:46;10.73;;;6.73;;
63110;SDS011;49201;53.426;10.300;2022-12-10T06:44:12;11.73;;;8.23;;
63110;SDS011;49201;53.426;10.300;2022-12-10T06:46:41;13.27;;;8.07;;
63110;SDS011;49201;53.426;10.300;2022-12-10T06:49:12;12.43;;;7.70;;
63110;SDS011;49201;53.426;10.300;2022-12-10T06:51:40;11.73;;;8.13;;
63110;SDS011;49201;53.426;10.300;2022-12-10T06:54:06;13.13;;;8.30;;
63110;SDS011;49201;53.426;10.300;2022-12-10T06:56:35;15.23;;;9.20;;
63110;SDS011;49201;53.426;10.300;2022-12-10T06:59:04;17.40;;;10.10;;
63110;SDS011;49201;53.426;10.300;2022-12-10T07:01:32;17.70;;;10.20;;
63110;SDS011;49201;53.426;10.300;2022-12-10T07:03:58;17.93;;;10.53;;
63110;SDS011;49201;53.426;10.300;2022-12-10T07:06:31;14.90;;;9.07;;
63110;SDS011;49201;53.426;10.300;2022-12-10T07:08:59;17.87;;;10.57;;
63110;SDS011;49201;53.426;10.300;2022-12-10T07:11:25;19.20;;;11.63;;
63110;SDS011;49201;53.426;10.300;2022-12-10T07:13:51;16.67;;;10.47;;
63110;SDS011;49201;53.426;10.300;2022-12-10T07:16:19;16.23;;;9.30;;
63110;SDS011;49201;53.426;10.300;2022-12-10T07:18:46;14.13;;;9.00;;
63110;SDS011;49201;53.426;10.300;2022-12-10T07:21:25;13.10;;;9.20;;
63110;SDS011;49201;53.426;10.300;2022-12-10T07:23:56;14.23;;;9.13;;
63110;SDS011;49201;53.426;10.300;2022-12-10T07:26:24;16.73;;;9.47;;
63110;SDS011;49201;53.426;10.300;2022-12-10T07:28:50;14.00;;;8.80;;
63110;SDS011;49201;53.426;10.300;2022-12-10T07:31:20;16.17;;;9.73;;
63110;SDS011;49201;53.426;10.300;2022-12-10T07:33:52;15.17;;;9.07;;
63110;SDS011;49201;53.426;10.300;2022-12-10T07:36:23;16.47;;;9.33;;
63110;SDS011;49201;53.426;10.300;2022-12-10T07:38:52;15.57;;;9.33;;
63110;SDS011;49201;53.426;10.300;2022-12-10T07:41:20;13.40;;;8.20;;
63110;SDS011;49201;53.426;10.300;2022-12-10T07:43:47;15.43;;;9.43;;
63110;SDS011;49201;53.426;10.300;2022-12-10T07:46:19;15.77;;;9.40;;
63110;SDS011;49201;53.426;10.300;2022-12-10T07:48:51;11.53;;;7.33;;
63110;SDS011;49201;53.426;10.300;2022-12-10T07:51:20;10.73;;;7.20;;
63110;SDS011;49201;53.426;10.300;2022-12-10T07:53:55;10.33;;;7.33;;
63110;SDS011;49201;53.426;10.300;2022-12-10T07:56:24;15.10;;;8.90;;
63110;SDS011;49201;53.426;10.300;2022-12-10T07:58:51;13.67;;;8.63;;
63110;SDS011;49201;53.426;10.300;2022-12-10T08:01:22;12.40;;;7.47;;
63110;SDS011;49201;53.426;10.300;2022-12-10T08:03:49;13.17;;;7.93;;
63110;SDS011;49201;53.426;10.300;2022-12-10T08:06:21;12.43;;;8.27;;
63110;SDS011;49201;53.426;10.300;2022-12-10T08:08:55;15.90;;;8.50;;
63110;SDS011;49201;53.426;10.300;2022-12-10T08:11:27;13.20;;;8.83;;
63110;SDS011;49201;53.426;10.300;2022-12-10T08:13:58;17.83;;;10.93;;
63110;SDS011;49201;53.426;10.300;2022-12-10T08:16:27;14.07;;;9.50;;
63110;SDS011;49201;53.426;10.300;2022-12-10T08:18:57;15.37;;;9.90;;
63110;SDS011;49201;53.426;10.300;2022-12-10T08:21:27;12.90;;;8.60;;
63110;SDS011;49201;53.426;10.300;2022-12-10T08:23:55;13.13;;;9.47;;
63110;SDS011;49201;53.426;10.300;2022-12-10T08:26:22;15.77;;;9.17;;
63110;SDS011;49201;53.426;10.300;2022-12-10T08:28:50;13.33;;;8.90;;
63110;SDS011;49201;53.426;10.300;2022-12-10T08:31:19;14.63;;;8.93;;
63110;SDS011;49201;53.426;10.300;2022-12-10T08:33:47;15.67;;;9.00;;
63110;SDS011;49201;53.426;10.300;2022-12-10T08:36:18;14.83;;;9.80;;
63110;SDS011;49201;53.426;10.300;2022-12-10T08:38:47;14.50;;;9.63;;
63110;SDS011;49201;53.426;10.300;2022-12-10T08:41:19;16.00;;;10.13;;
63110;SDS011;49201;53.426;10.300;2022-12-10T08:43:51;17.70;;;10.60;;
63110;SDS011;49201;53.426;10.300;2022-12-10T08:46:20;15.67;;;9.87;;
63110;SDS011;49201;53.426;10.300;2022-12-10T08:48:51;15.03;;;9.97;;
63110;SDS011;49201;53.426;10.300;2022-12-10T08:51:22;15.93;;;9.80;;
63110;SDS011;49201;53.426;10.300;2022-12-10T08:53:48;15.37;;;9.73;;
63110;SDS011;49201;53.426;10.300;2022-12-10T08:56:14;16.50;;;10.47;;
63110;SDS011;49201;53.426;10.300;2022-12-10T08:58:40;17.40;;;10.53;;
63110;SDS011;49201;53.426;10.300;2022-12-10T09:01:07;16.97;;;10.93;;
63110;SDS011;49201;53.426;10.300;2022-12-10T09:03:37;15.87;;;10.87;;
63110;SDS011;49201;53.426;10.300;2022-12-10T09:06:04;19.13;;;11.60;;
63110;SDS011;49201;53.426;10.300;2022-12-10T09:08:32;20.57;;;13.53;;
63110;SDS011;49201;53.426;10.300;2022-12-10T09:11:12;22.70;;;13.23;;
63110;SDS011;49201;53.426;10.300;2022-12-10T09:13:43;20.83;;;12.93;;
63110;SDS011;49201;53.426;10.300;2022-12-10T09:16:12;22.73;;;12.13;;
63110;SDS011;49201;53.426;10.300;2022-12-10T09:18:38;18.17;;;10.10;;
63110;SDS011;49201;53.426;10.300;2022-12-10T09:21:08;17.47;;;10.53;;
63110;SDS011;49201;53.426;10.300;2022-12-10T09:23:39;19.47;;;11.87;;
63110;SDS011;49201;53.426;10.300;2022-12-10T09:26:10;21.93;;;12.10;;
63110;SDS011;49201;53.426;10.300;2022-12-10T09:28:40;23.50;;;13.70;;
63110;SDS011;49201;53.426;10.300;2022-12-10T09:31:10;20.20;;;12.10;;
63110;SDS011;49201;53.426;10.300;2022-12-10T09:33:37;18.70;;;10.70;;
63110;SDS011;49201;53.426;10.300;2022-12-10T09:36:08;16.40;;;10.67;;
63110;SDS011;49201;53.426;10.300;2022-12-10T09:38:38;16.30;;;10.23;;
63110;SDS011;49201;53.426;10.300;2022-12-10T09:42:06;17.67;;;10.60;;
63110;SDS011;49201;53.426;10.300;2022-12-10T09:46:59;17.20;;;10.77;;
63110;SDS011;49201;53.426;10.300;2022-12-10T09:49:36;21.30;;;11.93;;
63110;SDS011;49201;53.426;10.300;2022-12-10T09:52:39;19.37;;;10.87;;
63110;SDS011;49201;53.426;10.300;2022-12-10T09:55:15;16.60;;;10.17;;
63110;SDS011;49201;53.426;10.300;2022-12-10T09:57:53;16.33;;;9.47;;
63110;SDS011;49201;53.426;10.300;2022-12-10T10:00:26;16.13;;;10.03;;
63110;SDS011;49201;53.426;10.300;2022-12-10T10:03:01;17.93;;;9.93;;
63110;SDS011;49201;53.426;10.300;2022-12-10T10:05:33;19.70;;;10.17;;
63110;SDS011;49201;53.426;10.300;2022-12-10T10:08:11;16.63;;;9.93;;
63110;SDS011;49201;53.426;10.300;2022-12-10T10:10:45;14.87;;;9.93;;
63110;SDS011;49201;53.426;10.300;2022-12-10T10:13:14;16.63;;;10.43;;
63110;SDS011;49201;53.426;10.300;2022-12-10T10:15:47;18.40;;;11.63;;
63110;SDS011;49201;53.426;10.300;2022-12-10T10:20:44;18.50;;;11.00;;
63110;SDS011;49201;53.426;10.300;2022-12-10T10:23:14;17.13;;;10.33;;
63110;SDS011;49201;53.426;10.300;2022-12-10T10:25:43;19.67;;;10.57;;
63110;SDS011;49201;53.426;10.300;2022-12-10T10:28:20;18.13;;;10.97;;
63110;SDS011;49201;53.426;10.300;2022-12-10T10:30:52;17.73;;;10.53;;
63110;SDS011;49201;53.426;10.300;2022-12-10T10:33:19;18.20;;;10.77;;
63110;SDS011;49201;53.426;10.300;2022-12-10T10:35:54;18.40;;;11.17;;
63110;SDS011;49201;53.426;10.300;2022-12-10T10:38:25;18.87;;;11.27;;
63110;SDS011;49201;53.426;10.300;2022-12-10T10:41:00;16.97;;;10.00;;
63110;SDS011;49201;53.426;10.300;2022-12-10T10:43:32;20.13;;;11.47;;
63110;SDS011;49201;53.426;10.300;2022-12-10T10:48:47;21.53;;;11.57;;
63110;SDS011;49201;53.426;10.300;2022-12-10T10:51:21;18.03;;;10.00;;
63110;SDS011;49201;53.426;10.300;2022-12-10T10:53:51;17.47;;;10.57;;
63110;SDS011;49201;53.426;10.300;2022-12-10T10:56:38;21.57;;;11.27;;
63110;SDS011;49201;53.426;10.300;2022-12-10T11:01:47;22.53;;;11.73;;
63110;SDS011;49201;53.426;10.300;2022-12-10T11:04:15;21.30;;;11.20;;
63110;SDS011;49201;53.426;10.300;2022-12-10T11:06:44;19.83;;;11.00;;
63110;SDS011;49201;53.426;10.300;2022-12-10T11:09:20;19.57;;;10.33;;
63110;SDS011;49201;53.426;10.300;2022-12-10T11:11:51;19.53;;;11.33;;
63110;SDS011;49201;53.426;10.300;2022-12-10T11:14:24;24.47;;;12.97;;
63110;SDS011;49201;53.426;10.300;2022-12-10T11:17:20;21.10;;;12.23;;
63110;SDS011;49201;53.426;10.300;2022-12-10T11:19:58;19.30;;;10.67;;
63110;SDS011;49201;53.426;10.300;2022-12-10T11:22:40;18.73;;;11.43;;
63110;SDS011;49201;53.426;10.300;2022-12-10T11:25:15;20.57;;;11.17;;
63110;SDS011;49201;53.426;10.300;2022-12-10T11:28:08;19.87;;;11.47;;
63110;SDS011;49201;53.426;10.300;2022-12-10T11:30:44;21.33;;;11.57;;
63110;SDS011;49201;53.426;10.300;2022-12-10T11:33:27;19.80;;;11.23;;
63110;SDS011;49201;53.426;10.300;2022-12-10T11:44:39;21.40;;;12.07;;
63110;SDS011;49201;53.426;10.300;2022-12-10T11:50:46;22.37;;;12.77;;
63110;SDS011;49201;53.426;10.300;2022-12-10T11:56:30;20.13;;;11.87;;
63110;SDS011;49201;53.426;10.300;2022-12-10T12:07:38;22.00;;;12.00;;
63110;SDS011;49201;53.426;10.300;2022-12-10T12:15:58;19.50;;;11.40;;
63110;SDS011;49201;53.426;10.300;2022-12-10T12:19:00;21.87;;;11.57;;
63110;SDS011;49201;53.426;10.300;2022-12-10T12:21:36;20.43;;;11.10;;
63110;SDS011;49201;53.426;10.300;2022-12-10T12:24:16;17.83;;;10.40;;
63110;SDS011;49201;53.426;10.300;2022-12-10T12:26:48;18.43;;;10.53;;
63110;SDS011;49201;53.426;10.300;2022-12-10T12:29:45;20.13;;;11.03;;
63110;SDS011;49201;53.426;10.300;2022-12-10T12:32:23;21.10;;;11.83;;
63110;SDS011;49201;53.426;10.300;2022-12-10T12:40:42;23.70;;;11.90;;
63110;SDS011;49201;53.426;10.300;2022-12-10T12:43:15;22.73;;;12.37;;
63110;SDS011;49201;53.426;10.300;2022-12-10T12:45:48;21.87;;;12.20;;
63110;SDS011;49201;53.426;10.300;2022-12-10T12:51:32;20.60;;;11.77;;
63110;SDS011;49201;53.426;10.300;2022-12-10T12:54:04;19.17;;;11.07;;
63110;SDS011;49201;53.426;10.300;2022-12-10T12:59:26;21.30;;;12.37;;
63110;SDS011;49201;53.426;10.300;2022-12-10T13:05:27;21.50;;;12.33;;
63110;SDS011;49201;53.426;10.300;2022-12-10T13:10:50;20.23;;;10.90;;
63110;SDS011;49201;53.426;10.300;2022-12-10T13:13:28;28.47;;;18.93;;
63110;SDS011;49201;53.426;10.300;2022-12-10T13:16:33;25.77;;;13.83;;
63110;SDS011;49201;53.426;10.300;2022-12-10T13:29:52;20.90;;;12.07;;
63110;SDS011;49201;53.426;10.300;2022-12-10T13:32:46;22.57;;;12.60;;
63110;SDS011;49201;53.426;10.300;2022-12-10T13:35:27;23.87;;;12.20;;
63110;SDS011;49201;53.426;10.300;2022-12-10T13:38:02;23.13;;;12.37;;
63110;SDS011;49201;53.426;10.300;2022-12-10T13:49:19;20.03;;;11.30;;
63110;SDS011;49201;53.426;10.300;2022-12-10T14:00:15;18.77;;;11.17;;
63110;SDS011;49201;53.426;10.300;2022-12-10T14:02:55;20.53;;;11.33;;
63110;SDS011;49201;53.426;10.300;2022-12-10T14:08:58;21.90;;;12.47;;
63110;SDS011;49201;53.426;10.300;2022-12-10T14:11:47;21.50;;;12.10;;
63110;SDS011;49201;53.426;10.300;2022-12-10T14:14:23;22.47;;;12.63;;
63110;SDS011;49201;53.426;10.300;2022-12-10T14:16:59;22.93;;;13.87;;
63110;SDS011;49201;53.426;10.300;2022-12-10T14:19:30;19.73;;;11.43;;
63110;SDS011;49201;53.426;10.300;2022-12-10T14:22:04;22.37;;;12.87;;
63110;SDS011;49201;53.426;10.300;2022-12-10T14:24:38;20.07;;;11.40;;
63110;SDS011;49201;53.426;10.300;2022-12-10T14:27:18;22.37;;;13.10;;
63110;SDS011;49201;53.426;10.300;2022-12-10T14:29:57;29.03;;;16.97;;
63110;SDS011;49201;53.426;10.300;2022-12-10T14:32:53;23.77;;;12.90;;
63110;SDS011;49201;53.426;10.300;2022-12-10T14:35:22;23.33;;;13.07;;
63110;SDS011;49201;53.426;10.300;2022-12-10T14:37:54;23.17;;;13.80;;
63110;SDS011;49201;53.426;10.300;2022-12-10T14:40:29;22.73;;;12.37;;
63110;SDS011;49201;53.426;10.300;2022-12-10T14:43:07;20.67;;;11.60;;
63110;SDS011;49201;53.426;10.300;2022-12-10T14:45:38;24.70;;;13.40;;
63110;SDS011;49201;53.426;10.300;2022-12-10T14:48:12;23.33;;;13.27;;
63110;SDS011;49201;53.426;10.300;2022-12-10T14:50:42;21.73;;;11.87;;
63110;SDS011;49201;53.426;10.300;2022-12-10T14:53:17;20.53;;;12.27;;
63110;SDS011;49201;53.426;10.300;2022-12-10T14:55:49;23.80;;;13.53;;
63110;SDS011;49201;53.426;10.300;2022-12-10T14:58:45;24.23;;;13.60;;
63110;SDS011;49201;53.426;10.300;2022-12-10T15:01:41;21.27;;;11.60;;
63110;SDS011;49201;53.426;10.300;2022-12-10T15:04:18;22.47;;;13.60;;
63110;SDS011;49201;53.426;10.300;2022-12-10T15:06:52;22.80;;;12.07;;
63110;SDS011;49201;53.426;10.300;2022-12-10T15:09:26;21.83;;;12.53;;
63110;SDS011;49201;53.426;10.300;2022-12-10T15:12:00;23.57;;;11.97;;
63110;SDS011;49201;53.426;10.300;2022-12-10T15:14:28;22.00;;;12.63;;
63110;SDS011;49201;53.426;10.300;2022-12-10T15:16:58;25.00;;;13.63;;
63110;SDS011;49201;53.426;10.300;2022-12-10T15:19:35;22.40;;;12.50;;
63110;SDS011;49201;53.426;10.300;2022-12-10T15:24:59;20.13;;;12.43;;
63110;SDS011;49201;53.426;10.300;2022-12-10T15:27:51;23.23;;;13.57;;
63110;SDS011;49201;53.426;10.300;2022-12-10T15:30:21;26.93;;;15.60;;
63110;SDS011;49201;53.426;10.300;2022-12-10T15:33:02;24.53;;;12.70;;
63110;SDS011;49201;53.426;10.300;2022-12-10T15:35:50;25.53;;;13.43;;
63110;SDS011;49201;53.426;10.300;2022-12-10T15:38:32;21.80;;;13.10;;
63110;SDS011;49201;53.426;10.300;2022-12-10T15:41:31;24.00;;;12.60;;
63110;SDS011;49201;53.426;10.300;2022-12-10T15:44:02;20.93;;;12.37;;
63110;SDS011;49201;53.426;10.300;2022-12-10T15:46:30;20.77;;;11.47;;
63110;SDS011;49201;53.426;10.300;2022-12-10T15:48:56;21.20;;;12.40;;
63110;SDS011;49201;53.426;10.300;2022-12-10T15:51:27;21.90;;;12.37;;
63110;SDS011;49201;53.426;10.300;2022-12-10T15:53:53;27.57;;;16.13;;
63110;SDS011;49201;53.426;10.300;2022-12-10T15:56:22;29.83;;;18.13;;
63110;SDS011;49201;53.426;10.300;2022-12-10T15:58:50;33.70;;;19.43;;
63110;SDS011;49201;53.426;10.300;2022-12-10T16:01:16;33.30;;;20.47;;
63110;SDS011;49201;53.426;10.300;2022-12-10T16:03:42;30.33;;;20.10;;
63110;SDS011;49201;53.426;10.300;2022-12-10T16:06:08;29.90;;;19.27;;
63110;SDS011;49201;53.426;10.300;2022-12-10T16:08:34;22.67;;;14.90;;
63110;SDS011;49201;53.426;10.300;2022-12-10T16:11:17;27.87;;;17.53;;
63110;SDS011;49201;53.426;10.300;2022-12-10T16:13:49;24.90;;;15.53;;
63110;SDS011;49201;53.426;10.300;2022-12-10T16:16:22;23.53;;;13.40;;
63110;SDS011;49201;53.426;10.300;2022-12-10T16:18:54;20.87;;;13.97;;
63110;SDS011;49201;53.426;10.300;2022-12-10T16:21:22;21.60;;;12.17;;
63110;SDS011;49201;53.426;10.300;2022-12-10T16:23:48;20.80;;;12.00;;